To NAV CANADA Home Page Login to a new session Search on AWWS site Disclaimer Vers la page française équivalente Tips FAQ What's new on the site To the Forecasts and Observations / NOTAM section To "File a Flight Plan" website Publications and other links Update of the User's profile FIC Telephone Numbers My Weather Data Folder Route Weather Data Regional Weather Data Local Weather Data To the Forecasts and Observations / NOTAM section
Request Generated 03/08/2021 at 00:49:52 UTC . Weather information available at that time is displayed.


Go to a specific product

Save this request

NOTAM

NOTAM


SIGMET
To the Product Selector

SIGMETS GFACN32

GFACN32 - No SIGMET bulletins in effect



AIRMET
To the Product Selector

AIRMETS GFACN32

GFACN32 - No AIRMET bulletins in effect



PIREP
To the Product Selector

FIR_WINNIPEG (WG)

WG - PIREP not available



METAR/TAF
To the Product Selector

REGINA INTL/SK    

METAR CYQR 080000Z 23003KT 15SM FEW030 FEW140 FEW250 06/M02 A2999 RMK SC1AC1CI1 SC TR SLP182=
METAR CYQR 072300Z 29005KT 15SM FEW030 FEW120 FEW250 07/M04 A2998 RMK CU1AC1CI1 CU TR AC TR SLP176=
METAR CYQR 072200Z 28007KT 15SM FEW250 07/M01 A2998 RMK CI2 SLP176=

TAF CYQR 072338Z 0800/0824 VRB03KT P6SM FEW030
FM080200 16008KT P6SM SCT060 TEMPO 0802/0808 BKN060
FM080800 18010KT P6SM FEW060
BECMG 0810/0812 24010KT
FM081700 24010KT P6SM SCT080 TEMPO 0817/0824 BKN080
BECMG 0822/0824 04008KT
RMK NXT FCST BY 080600Z=

MOOSE JAW/AIR VICE MARSHAL C.M. MCEWEN/SK    

CYMJ - METAR not available

*** REMARK        : Forecast period has ended; this was the last TAF issued
*** REMARQUE : La période de prévision est échue; ceci était le dernier TAF qui a été émis
TAF AMD CYMJ 052345Z 0600/0612 FCST CNCLD DUE END OF FLYING PROGRAM
RMK NXT FCST WILL BE ISSUED AT 081115Z=


RADAR PCPN RATE
To the Product Selector
Pacific Canada      Western Canada     

SATELLITE VISIBLE
To the Product Selector
West Canada      

SATELLITE INFRARED
To the Product Selector
West Canada     

GRAPHICAL FA CLOUDS & WEATHER FORECASTS
To the Product Selector
Graphical FA gfacn32      

GRAPHICAL FA ICING, TURBULENCE & FREEZING LEVEL FORECASTS
To the Product Selector
Graphical FA gfacn32      

FDTEXT Low Level FD. Temperatures are not forecast for the 3,000-foot level.
To the Product Selector
STN YQR - REGINA. SASK for use 3000 6000 9000 12000 18000
FDCN01 CWAO FCST BASED ON 071200 DATA VALID 071800 17-21 3221-03 3221-10 3027-15 2836-23
FDCN02 CWAO FCST BASED ON 071200 DATA VALID 080000 21-06 2410-03 2619-10 2620-16 2651-24
FDCN03 CWAO FCST BASED ON 071200 DATA VALID 081200 06-17 2521-01 2640-08 2647-15 2660-26



Your time UTC time
Weather data provided by Environment Canada and NAV CANADA